Time;durP1;ratioP1;P1;durP2;ratioP2;P2;SDS_P1;SDS_P2;PMS_P1;PMS_P2;Temp;Humidity;BMP_temperature;BMP_pressure;BME280_temperature;BME280_humidity;BME280_pressure;Samples;Min_cycle;Max_cycle;Signal;HPM_P1;HPM_P2
2022/02/22 00:01:18;;;;;;;9.38;2.85;;;;;;;;;;5020542;28;20025;-70
2022/02/22 00:03:44;;;;;;;9.50;2.30;;;;;;;;;;5027191;28;20025;-70
2022/02/22 00:06:10;;;;;;;7.45;2.35;;;;;;;;;;5016261;28;20072;-70
2022/02/22 00:08:37;;;;;;;7.22;1.85;;;;;;;;;;5027089;28;20030;-70
2022/02/22 00:11:03;;;;;;;13.02;1.98;;;;;;;;;;5022503;28;20029;-70
2022/02/22 00:13:29;;;;;;;9.13;2.20;;;;;;;;;;5018873;28;20026;-71
2022/02/22 00:15:57;;;;;;;11.07;2.50;;;;;;;;;;5029310;28;20022;-71
2022/02/22 00:18:23;;;;;;;8.50;2.33;;;;;;;;;;4999266;28;20099;-70
2022/02/22 00:20:49;;;;;;;8.43;2.10;;;;;;;;;;5025199;28;20084;-71
2022/02/22 00:23:15;;;;;;;7.13;1.73;;;;;;;;;;5021359;28;20029;-71
2022/02/22 00:25:41;;;;;;;7.38;2.58;;;;;;;;;;5017707;28;20037;-71
2022/02/22 00:28:07;;;;;;;9.60;2.15;;;;;;;;;;5027973;28;20029;-70
2022/02/22 00:30:33;;;;;;;4.75;1.33;;;;;;;;;;5017616;28;20471;-71
2022/02/22 00:32:59;;;;;;;6.15;1.58;;;;;;;;;;5022915;28;20025;-69
2022/02/22 00:35:26;;;;;;;5.90;1.58;;;;;;;;;;5023704;28;20537;-71
2022/02/22 00:37:51;;;;;;;6.57;2.40;;;;;;;;;;5016215;28;20461;-70
2022/02/22 00:40:18;;;;;;;9.38;1.58;;;;;;;;;;5028373;28;20057;-70
2022/02/22 00:42:44;;;;;;;5.38;1.13;;;;;;;;;;5018469;28;20034;-69
2022/02/22 00:45:10;;;;;;;6.00;1.90;;;;;;;;;;5021743;28;20026;-71
2022/02/22 00:47:36;;;;;;;4.20;1.35;;;;;;;;;;5025949;28;20049;-71
2022/02/22 00:50:03;;;;;;;7.88;1.90;;;;;;;;;;5015338;28;20060;-71
2022/02/22 00:52:29;;;;;;;8.13;1.95;;;;;;;;;;5027237;28;20109;-71
2022/02/22 00:54:55;;;;;;;3.97;1.52;;;;;;;;;;5019286;28;20045;-71
2022/02/22 00:57:21;;;;;;;6.97;1.52;;;;;;;;;;5020263;28;20033;-71
2022/02/22 00:59:47;;;;;;;7.70;1.60;;;;;;;;;;5026842;28;20056;-70
2022/02/22 01:02:13;;;;;;;7.38;1.48;;;;;;;;;;5015073;28;20069;-71
2022/02/22 01:04:39;;;;;;;6.63;1.33;;;;;;;;;;5024877;28;20026;-71
2022/02/22 01:07:05;;;;;;;6.53;1.08;;;;;;;;;;5021018;28;20036;-71
2022/02/22 01:09:32;;;;;;;9.77;3.15;;;;;;;;;;5018195;28;20026;-71
2022/02/22 01:11:57;;;;;;;5.88;1.05;;;;;;;;;;5026656;28;20025;-71
2022/02/22 01:14:23;;;;;;;3.70;1.00;;;;;;;;;;5014906;28;20029;-71
2022/02/22 01:16:49;;;;;;;9.70;1.65;;;;;;;;;;5023680;28;20057;-70
2022/02/22 01:19:15;;;;;;;7.30;1.38;;;;;;;;;;5022138;28;20026;-70
2022/02/22 01:21:41;;;;;;;6.13;2.20;;;;;;;;;;5016966;28;20049;-71
2022/02/22 01:24:08;;;;;;;6.78;1.70;;;;;;;;;;5027155;28;20068;-70
2022/02/22 01:26:34;;;;;;;5.35;1.77;;;;;;;;;;5017028;28;20239;-70
2022/02/22 01:29:00;;;;;;;6.15;1.67;;;;;;;;;;5021018;28;20076;-71
2022/02/22 01:31:27;;;;;;;7.55;2.20;;;;;;;;;;5023770;28;20022;-71
2022/02/22 01:33:55;;;;;;;5.15;1.48;;;;;;;;;;5014911;28;20464;-71
2022/02/22 01:36:24;;;;;;;7.45;2.35;;;;;;;;;;5013562;28;20025;-71
2022/02/22 01:38:54;;;;;;;3.53;1.30;;;;;;;;;;5024488;28;20025;-71
2022/02/22 01:41:20;;;;;;;5.30;1.38;;;;;;;;;;5027034;28;20036;-70
2022/02/22 01:43:46;;;;;;;4.38;1.67;;;;;;;;;;5018050;28;20488;-71
2022/02/22 01:46:12;;;;;;;3.78;1.27;;;;;;;;;;5031866;28;20071;-70
2022/02/22 01:48:38;;;;;;;8.75;2.38;;;;;;;;;;5021214;28;20493;-70
2022/02/22 01:51:04;;;;;;;5.40;1.42;;;;;;;;;;5025781;28;20396;-71
2022/02/22 01:53:32;;;;;;;7.18;2.75;;;;;;;;;;5027713;28;20025;-70
2022/02/22 01:55:58;;;;;;;5.22;2.00;;;;;;;;;;5018514;28;20018;-70
2022/02/22 01:58:24;;;;;;;4.68;1.35;;;;;;;;;;5030985;28;20136;-71
2022/02/22 02:00:51;;;;;;;6.25;1.90;;;;;;;;;;5022661;28;20033;-71
2022/02/22 02:03:17;;;;;;;4.90;1.35;;;;;;;;;;5023330;28;20026;-70
2022/02/22 02:05:46;;;;;;;4.97;1.67;;;;;;;;;;5029915;28;20079;-70
2022/02/22 02:08:12;;;;;;;5.82;1.92;;;;;;;;;;5015482;28;20094;-71
2022/02/22 02:10:38;;;;;;;2.17;1.50;;;;;;;;;;5019351;28;20024;-70
2022/02/22 02:13:04;;;;;;;6.35;2.05;;;;;;;;;;5024629;28;20079;-71
2022/02/22 02:15:31;;;;;;;4.78;1.50;;;;;;;;;;5020264;28;20054;-70
2022/02/22 02:17:57;;;;;;;1.95;1.60;;;;;;;;;;5022211;28;20025;-70
2022/02/22 02:20:23;;;;;;;5.00;1.45;;;;;;;;;;5029370;28;20396;-70
2022/02/22 02:22:49;;;;;;;2.83;1.23;;;;;;;;;;5020994;28;20100;-71
2022/02/22 02:25:15;;;;;;;4.88;1.45;;;;;;;;;;5022145;28;20514;-70
2022/02/22 02:27:42;;;;;;;9.07;1.63;;;;;;;;;;5029094;28;20033;-71
2022/02/22 02:30:08;;;;;;;1.92;1.17;;;;;;;;;;5017878;28;20037;-70
2022/02/22 02:32:35;;;;;;;5.70;1.33;;;;;;;;;;5029190;28;20010;-71
2022/02/22 02:35:01;;;;;;;3.40;1.20;;;;;;;;;;5022636;28;20017;-71
2022/02/22 02:37:27;;;;;;;2.22;1.02;;;;;;;;;;5021916;28;20412;-70
2022/02/22 02:39:52;;;;;;;4.13;1.05;;;;;;;;;;5030401;28;20036;-70
2022/02/22 02:42:19;;;;;;;4.70;1.50;;;;;;;;;;5018069;28;20109;-70
2022/02/22 02:44:45;;;;;;;4.15;1.40;;;;;;;;;;5026733;28;20030;-70
2022/02/22 02:47:11;;;;;;;7.97;1.50;;;;;;;;;;5024776;28;20028;-70
2022/02/22 02:49:38;;;;;;;6.18;1.30;;;;;;;;;;5020070;28;20036;-71
2022/02/22 02:52:04;;;;;;;4.47;0.90;;;;;;;;;;5029942;28;20035;-70
2022/02/22 02:54:30;;;;;;;3.25;0.75;;;;;;;;;;5018378;28;20442;-70
2022/02/22 02:56:56;;;;;;;6.80;1.75;;;;;;;;;;5025691;28;20046;-71
2022/02/22 02:59:22;;;;;;;6.03;1.38;;;;;;;;;;5054519;22;20127;-70
2022/02/22 03:01:48;;;;;;;2.42;1.20;;;;;;;;;;5018705;28;20056;-70
2022/02/22 03:04:14;;;;;;;5.53;1.50;;;;;;;;;;5029333;28;20027;-69
2022/02/22 03:06:40;;;;;;;4.40;1.10;;;;;;;;;;5020086;28;20018;-69
2022/02/22 03:09:06;;;;;;;5.47;1.48;;;;;;;;;;5023761;28;20582;-70
2022/02/22 03:11:33;;;;;;;5.57;1.10;;;;;;;;;;5027058;28;20025;-70
2022/02/22 03:13:59;;;;;;;5.18;1.00;;;;;;;;;;5016331;28;20032;-71
2022/02/22 03:16:25;;;;;;;4.38;1.30;;;;;;;;;;5029256;28;20032;-70
2022/02/22 03:18:51;;;;;;;5.00;1.45;;;;;;;;;;5021032;28;20029;-70
2022/02/22 03:21:17;;;;;;;5.07;1.10;;;;;;;;;;5022332;28;20117;-70
2022/02/22 03:23:43;;;;;;;4.88;1.15;;;;;;;;;;5027605;28;20021;-71
2022/02/22 03:26:09;;;;;;;4.53;0.90;;;;;;;;;;5016756;28;20494;-70
2022/02/22 03:28:35;;;;;;;8.05;1.15;;;;;;;;;;5026244;28;20022;-71
2022/02/22 03:31:03;;;;;;;2.50;0.90;;;;;;;;;;5022249;28;20104;-71
2022/02/22 03:33:29;;;;;;;7.70;1.33;;;;;;;;;;5019727;28;20484;-71
2022/02/22 03:35:55;;;;;;;7.85;1.40;;;;;;;;;;5029437;28;20036;-71
2022/02/22 03:38:21;;;;;;;4.15;1.58;;;;;;;;;;5016907;28;20096;-69
2022/02/22 03:40:47;;;;;;;6.03;1.52;;;;;;;;;;5026049;28;20553;-69
2022/02/22 03:43:13;;;;;;;3.13;1.33;;;;;;;;;;5023103;28;20391;-71
2022/02/22 03:45:39;;;;;;;3.65;1.40;;;;;;;;;;5019358;28;20314;-69
2022/02/22 03:48:05;;;;;;;5.93;1.50;;;;;;;;;;5029924;28;20013;-70
2022/02/22 03:50:31;;;;;;;2.65;1.30;;;;;;;;;;5017955;28;20025;-69
2022/02/22 03:52:57;;;;;;;6.75;1.98;;;;;;;;;;5023970;28;20404;-70
2022/02/22 03:55:23;;;;;;;4.65;1.27;;;;;;;;;;5024916;28;20025;-70
2022/02/22 03:57:49;;;;;;;7.47;1.75;;;;;;;;;;5015926;28;20022;-70
2022/02/22 04:00:19;;;;;;;5.05;2.08;;;;;;;;;;5029168;28;20036;-69
2022/02/22 04:02:45;;;;;;;2.60;1.50;;;;;;;;;;5017979;28;20112;-69
2022/02/22 04:05:11;;;;;;;3.45;1.10;;;;;;;;;;5021000;28;20484;-70
2022/02/22 04:07:37;;;;;;;7.03;1.42;;;;;;;;;;5027017;28;20105;-69
2022/02/22 04:10:04;;;;;;;5.65;1.33;;;;;;;;;;5015708;28;20030;-70
2022/02/22 04:12:30;;;;;;;4.40;1.60;;;;;;;;;;5027754;28;20022;-70
2022/02/22 04:14:56;;;;;;;6.40;1.83;;;;;;;;;;5019971;28;20030;-70
2022/02/22 04:17:22;;;;;;;6.00;1.98;;;;;;;;;;5019256;28;20373;-70
2022/02/22 04:19:49;;;;;;;7.00;1.85;;;;;;;;;;5027832;28;20060;-70
2022/02/22 04:22:15;;;;;;;5.00;2.10;;;;;;;;;;5015661;28;20026;-70
2022/02/22 04:24:48;;;;;;;6.53;1.95;;;;;;;;;;5066228;28;20387;-70
2022/02/22 04:27:14;;;;;;;7.55;2.05;;;;;;;;;;5067043;28;20470;-69
2022/02/22 04:29:40;;;;;;;3.72;1.20;;;;;;;;;;5065452;28;20052;-70
2022/02/22 04:32:07;;;;;;;2.72;1.48;;;;;;;;;;5066819;28;20350;-71
2022/02/22 04:34:33;;;;;;;4.22;1.55;;;;;;;;;;5065913;28;20457;-70
2022/02/22 04:36:59;;;;;;;6.40;1.73;;;;;;;;;;5072709;22;20531;-71
2022/02/22 04:39:25;;;;;;;4.70;1.65;;;;;;;;;;5048092;28;20017;-72
2022/02/22 04:41:51;;;;;;;2.60;1.08;;;;;;;;;;5048785;28;20026;-73
2022/02/22 04:44:18;;;;;;;4.93;1.30;;;;;;;;;;5047642;28;20022;-73
2022/02/22 04:46:44;;;;;;;7.70;2.38;;;;;;;;;;5048182;28;20021;-73
2022/02/22 04:49:10;;;;;;;6.15;1.75;;;;;;;;;;5048398;28;20140;-73
2022/02/22 04:51:36;;;;;;;11.93;1.73;;;;;;;;;;5046950;28;20029;-73
2022/02/22 04:54:03;;;;;;;8.00;2.17;;;;;;;;;;5047377;28;20029;-73
2022/02/22 04:56:29;;;;;;;16.33;2.70;;;;;;;;;;5048045;28;20506;-72
2022/02/22 04:58:56;;;;;;;19.67;3.58;;;;;;;;;;5046810;28;20124;-73
2022/02/22 05:01:22;;;;;;;21.42;3.35;;;;;;;;;;5047151;28;20025;-73
2022/02/22 05:03:48;;;;;;;13.82;2.80;;;;;;;;;;5047283;28;20033;-73
2022/02/22 05:06:14;;;;;;;18.10;2.83;;;;;;;;;;5048078;28;20103;-74
2022/02/22 05:08:40;;;;;;;27.08;3.33;;;;;;;;;;5047744;28;20079;-71
2022/02/22 05:11:06;;;;;;;19.63;3.30;;;;;;;;;;5048136;28;20025;-73
2022/02/22 05:13:32;;;;;;;16.35;2.35;;;;;;;;;;5047323;28;20469;-73
2022/02/22 05:15:58;;;;;;;17.55;2.70;;;;;;;;;;5047759;28;20533;-72
2022/02/22 05:18:24;;;;;;;16.70;3.28;;;;;;;;;;5048075;28;20028;-74
2022/02/22 05:20:56;;;;;;;12.15;2.90;;;;;;;;;;5047644;28;20021;-72
2022/02/22 05:23:26;;;;;;;19.13;2.60;;;;;;;;;;5046920;28;20033;-72
2022/02/22 05:25:52;;;;;;;16.15;2.72;;;;;;;;;;5046431;28;20029;-73
2022/02/22 05:28:18;;;;;;;16.98;3.30;;;;;;;;;;5047631;28;20543;-72
2022/02/22 05:30:47;;;;;;;18.08;2.55;;;;;;;;;;5047573;28;20024;-72
2022/02/22 05:33:12;;;;;;;10.70;2.35;;;;;;;;;;5047105;28;20068;-72
2022/02/22 05:35:38;;;;;;;15.95;2.55;;;;;;;;;;5036982;28;20068;-73
2022/02/22 05:38:04;;;;;;;18.13;3.20;;;;;;;;;;5034352;28;20036;-73
2022/02/22 05:40:30;;;;;;;14.32;3.10;;;;;;;;;;5034447;28;20432;-73
2022/02/22 05:42:56;;;;;;;17.33;3.08;;;;;;;;;;5033429;28;20502;-74
2022/02/22 05:45:22;;;;;;;13.27;3.25;;;;;;;;;;5033693;28;20424;-72
2022/02/22 05:47:48;;;;;;;21.08;2.92;;;;;;;;;;5034153;28;20028;-72
2022/02/22 05:50:14;;;;;;;22.08;3.20;;;;;;;;;;5033941;28;20021;-72
2022/02/22 05:52:40;;;;;;;15.02;3.13;;;;;;;;;;5033722;28;20021;-70
2022/02/22 05:55:06;;;;;;;23.55;4.13;;;;;;;;;;5032067;28;20498;-72
2022/02/22 05:57:32;;;;;;;14.18;3.10;;;;;;;;;;5034086;28;20063;-73
2022/02/22 05:59:58;;;;;;;18.52;2.83;;;;;;;;;;5034070;28;20467;-74
2022/02/22 06:02:24;;;;;;;16.40;4.13;;;;;;;;;;5033870;28;20472;-74
2022/02/22 06:04:50;;;;;;;29.48;3.63;;;;;;;;;;5033304;28;20017;-72
2022/02/22 06:07:19;;;;;;;16.48;2.83;;;;;;;;;;5033845;28;20029;-72
2022/02/22 06:09:45;;;;;;;17.35;3.03;;;;;;;;;;5033906;28;20049;-73
2022/02/22 06:12:11;;;;;;;20.38;3.28;;;;;;;;;;5033500;28;20499;-73
2022/02/22 06:14:37;;;;;;;13.07;2.35;;;;;;;;;;5032915;28;20544;-73
2022/02/22 06:17:03;;;;;;;16.27;3.65;;;;;;;;;;5033662;28;20040;-75
2022/02/22 06:19:29;;;;;;;17.95;3.50;;;;;;;;;;5033274;28;20053;-73
2022/02/22 06:21:55;;;;;;;14.88;2.47;;;;;;;;;;5033276;28;20475;-76
2022/02/22 06:24:21;;;;;;;15.68;2.97;;;;;;;;;;5016305;28;20034;-75
2022/02/22 06:26:47;;;;;;;16.05;2.83;;;;;;;;;;5033086;28;20084;-75
2022/02/22 06:29:13;;;;;;;19.65;2.85;;;;;;;;;;5033404;28;20026;-74
2022/02/22 06:31:39;;;;;;;15.18;2.70;;;;;;;;;;5033232;28;20028;-73
2022/02/22 06:34:05;;;;;;;21.35;5.55;;;;;;;;;;5032591;28;20026;-70
2022/02/22 06:36:32;;;;;;;15.57;2.80;;;;;;;;;;5032967;28;20537;-72
2022/02/22 06:38:58;;;;;;;18.30;2.83;;;;;;;;;;5032698;28;20387;-72
2022/02/22 06:41:24;;;;;;;17.63;3.08;;;;;;;;;;5031845;28;20029;-72
2022/02/22 06:43:50;;;;;;;17.85;3.17;;;;;;;;;;5030555;28;20086;-74
2022/02/22 06:46:16;;;;;;;19.75;3.13;;;;;;;;;;5030090;28;20176;-74
2022/02/22 06:48:42;;;;;;;16.48;3.38;;;;;;;;;;5031761;28;20112;-72
2022/02/22 06:51:08;;;;;;;14.63;3.13;;;;;;;;;;5031873;28;20256;-73
2022/02/22 06:53:34;;;;;;;21.42;4.32;;;;;;;;;;5030988;28;20435;-73
2022/02/22 06:56:01;;;;;;;18.63;3.35;;;;;;;;;;5030943;28;20025;-73
2022/02/22 06:58:27;;;;;;;8.00;2.45;;;;;;;;;;5031758;28;20021;-73
2022/02/22 07:00:55;;;;;;;22.98;3.35;;;;;;;;;;5027539;28;20022;-73
2022/02/22 07:03:20;;;;;;;13.80;2.60;;;;;;;;;;5031614;28;20052;-74
2022/02/22 07:05:46;;;;;;;20.50;4.93;;;;;;;;;;5032724;28;20484;-71
2022/02/22 07:08:12;;;;;;;22.02;3.88;;;;;;;;;;5032695;28;20623;-74
2022/02/22 07:10:38;;;;;;;14.07;2.55;;;;;;;;;;5032618;28;20018;-73
2022/02/22 07:13:04;;;;;;;14.40;3.05;;;;;;;;;;5031318;28;20037;-73
2022/02/22 07:15:30;;;;;;;17.75;3.08;;;;;;;;;;5032118;28;20487;-74
2022/02/22 07:17:57;;;;;;;15.18;3.10;;;;;;;;;;5032217;28;20064;-73
2022/02/22 07:20:24;;;;;;;17.15;2.70;;;;;;;;;;5032058;28;20501;-72
2022/02/22 07:22:52;;;;;;;12.65;2.85;;;;;;;;;;5031594;28;20053;-74
2022/02/22 07:25:19;;;;;;;17.33;3.28;;;;;;;;;;5031611;28;20025;-72
2022/02/22 07:27:45;;;;;;;15.55;3.00;;;;;;;;;;5032435;28;20087;-73
2022/02/22 07:30:12;;;;;;;19.23;3.15;;;;;;;;;;5032116;28;20021;-75
2022/02/22 07:32:38;;;;;;;13.50;2.70;;;;;;;;;;5032287;28;20388;-73
2022/02/22 07:35:04;;;;;;;22.33;3.28;;;;;;;;;;5031497;28;20045;-74
2022/02/22 07:37:31;;;;;;;19.42;3.10;;;;;;;;;;5032295;28;20021;-74
2022/02/22 07:39:57;;;;;;;14.48;3.08;;;;;;;;;;5032089;28;20022;-74
2022/02/22 07:42:23;;;;;;;19.25;3.67;;;;;;;;;;5030730;28;20071;-74
2022/02/22 07:44:49;;;;;;;17.80;3.05;;;;;;;;;;5031380;28;20036;-72
2022/02/22 07:47:16;;;;;;;17.42;3.03;;;;;;;;;;5030387;28;20018;-73
2022/02/22 07:49:42;;;;;;;20.75;3.80;;;;;;;;;;5031792;28;20013;-74
2022/02/22 07:52:08;;;;;;;18.58;3.05;;;;;;;;;;5032066;28;20026;-73
2022/02/22 07:54:34;;;;;;;20.00;4.28;;;;;;;;;;5031122;28;20036;-73
2022/02/22 07:57:01;;;;;;;20.05;4.45;;;;;;;;;;5031960;28;20057;-75
2022/02/22 07:59:26;;;;;;;87.65;33.45;;;;;;;;;;5032583;28;20018;-74
2022/02/22 08:01:52;;;;;;;58.97;21.08;;;;;;;;;;5032659;28;20475;-74
2022/02/22 08:04:18;;;;;;;65.25;24.17;;;;;;;;;;5031391;28;20553;-72
2022/02/22 08:06:44;;;;;;;88.68;33.92;;;;;;;;;;5032515;28;20080;-73
2022/02/22 08:09:10;;;;;;;90.10;32.60;;;;;;;;;;5032626;28;20029;-77
2022/02/22 08:11:36;;;;;;;93.38;33.92;;;;;;;;;;5032486;28;20021;-73
2022/02/22 08:14:02;;;;;;;152.73;46.72;;;;;;;;;;5031850;28;20025;-73
2022/02/22 08:16:28;;;;;;;107.43;32.15;;;;;;;;;;5031900;28;20390;-72
2022/02/22 08:18:55;;;;;;;127.57;35.97;;;;;;;;;;5031907;28;20033;-74
2022/02/22 08:21:22;;;;;;;32.95;8.60;;;;;;;;;;5031881;28;20056;-74
2022/02/22 08:23:48;;;;;;;61.67;18.05;;;;;;;;;;5030936;28;20021;-74
2022/02/22 08:26:14;;;;;;;34.80;8.68;;;;;;;;;;5031814;28;20048;-73
2022/02/22 08:28:39;;;;;;;57.53;15.40;;;;;;;;;;5031630;28;20032;-73
2022/02/22 08:31:05;;;;;;;61.28;21.73;;;;;;;;;;5031469;28;20144;-73
2022/02/22 08:33:32;;;;;;;72.75;23.92;;;;;;;;;;5030754;28;20026;-73
2022/02/22 08:35:58;;;;;;;136.45;47.13;;;;;;;;;;5030265;28;20048;-71
2022/02/22 08:38:24;;;;;;;63.33;21.27;;;;;;;;;;5031118;28;20030;-74
2022/02/22 08:40:50;;;;;;;56.00;17.77;;;;;;;;;;5030390;28;20029;-73
2022/02/22 08:43:16;;;;;;;36.13;8.35;;;;;;;;;;5029477;28;20028;-73
2022/02/22 08:45:43;;;;;;;37.05;9.32;;;;;;;;;;5030137;28;20021;-71
2022/02/22 08:48:10;;;;;;;55.13;15.52;;;;;;;;;;5029549;28;20014;-74
2022/02/22 08:50:36;;;;;;;32.90;8.02;;;;;;;;;;5029836;28;20048;-73
2022/02/22 08:53:02;;;;;;;29.30;7.88;;;;;;;;;;5029127;28;20471;-74
2022/02/22 08:55:28;;;;;;;26.67;7.75;;;;;;;;;;5031205;28;20034;-74
2022/02/22 08:57:56;;;;;;;42.40;13.43;;;;;;;;;;5031442;28;20037;-73
2022/02/22 09:00:23;;;;;;;37.58;10.70;;;;;;;;;;5031636;28;20399;-73
2022/02/22 09:02:53;;;;;;;51.83;14.88;;;;;;;;;;5030968;28;21902;-73
2022/02/22 09:05:19;;;;;;;61.75;18.45;;;;;;;;;;5031193;28;20025;-71
2022/02/22 09:07:45;;;;;;;27.67;8.80;;;;;;;;;;5031379;28;20072;-72
2022/02/22 09:10:14;;;;;;;43.40;15.00;;;;;;;;;;5033157;28;20071;-73
2022/02/22 09:12:41;;;;;;;32.78;9.82;;;;;;;;;;5034854;28;20017;-72
2022/02/22 09:15:08;;;;;;;25.17;6.93;;;;;;;;;;5034947;28;20045;-74
2022/02/22 09:17:34;;;;;;;29.45;8.32;;;;;;;;;;5035467;28;20028;-73
2022/02/22 09:20:02;;;;;;;38.22;8.90;;;;;;;;;;5035285;28;20440;-73
2022/02/22 09:22:28;;;;;;;24.17;7.28;;;;;;;;;;5035002;28;20144;-73
2022/02/22 09:24:54;;;;;;;28.02;6.82;;;;;;;;;;5034006;28;20021;-71
2022/02/22 09:27:20;;;;;;;30.70;7.93;;;;;;;;;;5034745;28;20522;-71
2022/02/22 09:29:46;;;;;;;25.30;9.93;;;;;;;;;;5034775;28;20093;-73
2022/02/22 09:32:12;;;;;;;29.77;8.40;;;;;;;;;;5034834;28;20167;-73
2022/02/22 09:34:38;;;;;;;34.60;8.23;;;;;;;;;;5033941;28;20032;-72
2022/02/22 09:37:05;;;;;;;26.05;7.03;;;;;;;;;;5034491;28;20051;-73
2022/02/22 09:39:31;;;;;;;28.65;7.43;;;;;;;;;;5034585;28;20048;-72
2022/02/22 09:41:57;;;;;;;35.60;10.25;;;;;;;;;;5034896;28;20026;-75
2022/02/22 09:44:23;;;;;;;22.25;5.80;;;;;;;;;;5033986;28;20033;-74
2022/02/22 09:46:50;;;;;;;20.90;7.20;;;;;;;;;;5034448;28;20485;-74
2022/02/22 09:49:16;;;;;;;29.17;6.88;;;;;;;;;;5034367;28;20025;-73
2022/02/22 09:51:42;;;;;;;20.48;4.68;;;;;;;;;;5034467;28;20029;-72
2022/02/22 09:54:08;;;;;;;31.10;8.50;;;;;;;;;;5033998;28;20128;-73
2022/02/22 09:56:41;;;;;;;27.15;6.60;;;;;;;;;;5034328;28;20029;-73
2022/02/22 09:59:07;;;;;;;26.23;5.90;;;;;;;;;;5034383;28;20036;-73
2022/02/22 10:01:43;;;;;;;28.02;7.60;;;;;;;;;;5034423;28;20037;-74
2022/02/22 10:04:09;;;;;;;38.80;8.85;;;;;;;;;;5032094;28;20033;-72
2022/02/22 10:06:35;;;;;;;29.30;7.25;;;;;;;;;;5034110;28;20028;-72
2022/02/22 10:09:01;;;;;;;22.50;6.38;;;;;;;;;;5034227;28;20037;-72
2022/02/22 10:11:27;;;;;;;28.27;6.68;;;;;;;;;;5032854;28;20064;-72
2022/02/22 10:13:53;;;;;;;27.70;7.18;;;;;;;;;;5033211;28;20021;-73
2022/02/22 10:16:19;;;;;;;16.17;5.45;;;;;;;;;;5033914;28;20025;-73
2022/02/22 10:18:46;;;;;;;23.15;7.32;;;;;;;;;;5032342;28;20076;-73
2022/02/22 10:21:12;;;;;;;20.23;4.90;;;;;;;;;;5033620;28;20037;-72
2022/02/22 10:23:38;;;;;;;33.95;6.72;;;;;;;;;;5033300;28;20029;-70
2022/02/22 10:26:04;;;;;;;29.80;7.32;;;;;;;;;;5033871;28;20025;-72
2022/02/22 10:28:30;;;;;;;20.45;4.93;;;;;;;;;;5033662;28;20026;-73
2022/02/22 10:30:56;;;;;;;29.27;7.22;;;;;;;;;;5033730;28;20387;-72
2022/02/22 10:33:24;;;;;;;22.42;4.78;;;;;;;;;;5033121;28;20037;-72
2022/02/22 10:35:51;;;;;;;26.42;6.60;;;;;;;;;;5055066;22;21313;-71
2022/02/22 10:38:23;;;;;;;20.38;6.25;;;;;;;;;;5032160;28;20029;-70
2022/02/22 10:40:55;;;;;;;22.13;5.03;;;;;;;;;;5033497;28;20365;-72
2022/02/22 10:43:22;;;;;;;22.85;7.05;;;;;;;;;;5032387;28;20112;-71
2022/02/22 10:45:50;;;;;;;22.35;5.13;;;;;;;;;;5033386;28;20449;-70
2022/02/22 10:48:31;;;;;;;32.92;7.05;;;;;;;;;;5031949;28;20021;-71
2022/02/22 10:50:57;;;;;;;27.10;6.25;;;;;;;;;;5032151;28;20022;-71
2022/02/22 10:53:29;;;;;;;29.70;6.10;;;;;;;;;;5033070;28;20076;-72
2022/02/22 10:55:55;;;;;;;;;;;;;;;;;;5034163;28;20033;-71
2022/02/22 10:58:21;;;;;;;20.70;5.03;;;;;;;;;;5033335;28;19932;-70
2022/02/22 11:00:47;;;;;;;17.58;6.20;;;;;;;;;;5033087;28;20080;-72
2022/02/22 11:03:13;;;;;;;19.27;4.70;;;;;;;;;;5033513;28;20025;-71
2022/02/22 11:05:39;;;;;;;24.30;7.03;;;;;;;;;;5033241;28;20033;-73
2022/02/22 11:08:05;;;;;;;19.60;4.60;;;;;;;;;;5032967;28;20178;-71
2022/02/22 11:10:32;;;;;;;18.73;5.15;;;;;;;;;;5031839;28;20030;-71
2022/02/22 11:13:01;;;;;;;22.08;4.82;;;;;;;;;;5032192;28;20063;-72
2022/02/22 11:15:35;;;;;;;22.33;5.32;;;;;;;;;;5032495;28;20048;-72
2022/02/22 11:18:06;;;;;;;17.90;4.68;;;;;;;;;;5032499;28;20026;-70
2022/02/22 11:20:33;;;;;;;21.77;6.55;;;;;;;;;;5031448;28;20470;-71
2022/02/22 11:23:00;;;;;;;28.65;7.45;;;;;;;;;;5031857;28;20025;-72
2022/02/22 11:25:28;;;;;;;23.23;7.18;;;;;;;;;;5032621;28;20025;-72
2022/02/22 11:27:59;;;;;;;30.42;5.88;;;;;;;;;;5032373;28;20025;-72
2022/02/22 11:30:29;;;;;;;22.80;7.03;;;;;;;;;;5032558;28;20025;-71
2022/02/22 11:32:57;;;;;;;23.63;5.55;;;;;;;;;;5031541;28;20028;-72
2022/02/22 11:35:23;;;;;;;18.33;3.80;;;;;;;;;;5031169;28;20025;-71
2022/02/22 11:37:50;;;;;;;23.10;5.60;;;;;;;;;;5032282;28;20044;-71
2022/02/22 11:40:23;;;;;;;21.95;5.50;;;;;;;;;;5032511;28;20021;-71
2022/02/22 11:42:49;;;;;;;21.40;5.55;;;;;;;;;;5032151;28;20026;-72
2022/02/22 11:45:24;;;;;;;18.60;4.70;;;;;;;;;;5032456;28;20028;-73
2022/02/22 11:47:52;;;;;;;28.52;7.68;;;;;;;;;;5032495;28;20514;-71
2022/02/22 11:50:18;;;;;;;14.85;3.40;;;;;;;;;;5031588;28;20112;-70
2022/02/22 11:52:46;;;;;;;21.85;5.03;;;;;;;;;;5032690;28;20041;-74
2022/02/22 11:55:14;;;;;;;21.20;3.63;;;;;;;;;;5033074;28;20029;-71
2022/02/22 11:57:45;;;;;;;22.40;5.30;;;;;;;;;;5032373;28;20492;-71
2022/02/22 12:00:13;;;;;;;22.20;5.00;;;;;;;;;;5032080;28;20025;-71
2022/02/22 12:02:45;;;;;;;27.05;7.07;;;;;;;;;;5031714;28;20499;-71
2022/02/22 12:05:27;;;;;;;22.60;6.53;;;;;;;;;;5032237;28;20227;-71
2022/02/22 12:08:00;;;;;;;17.38;3.80;;;;;;;;;;5031827;28;20022;-73
2022/02/22 12:10:28;;;;;;;30.25;5.72;;;;;;;;;;5031952;28;20025;-71
2022/02/22 12:13:04;;;;;;;14.07;4.28;;;;;;;;;;5031218;28;20044;-71
2022/02/22 12:15:31;;;;;;;24.27;6.40;;;;;;;;;;5032091;28;20026;-71
2022/02/22 12:17:57;;;;;;;25.92;5.80;;;;;;;;;;5032089;28;20114;-71
2022/02/22 12:20:25;;;;;;;17.17;4.70;;;;;;;;;;5032148;28;20061;-71
2022/02/22 12:22:52;;;;;;;17.70;3.95;;;;;;;;;;5031069;28;20026;-71
2022/02/22 12:25:23;;;;;;;16.90;3.85;;;;;;;;;;5031628;28;20615;-71
2022/02/22 12:27:59;;;;;;;16.15;5.18;;;;;;;;;;5031737;28;20028;-71
2022/02/22 12:30:35;;;;;;;16.05;4.15;;;;;;;;;;5031678;28;20030;-71
2022/02/22 12:33:01;;;;;;;20.05;3.80;;;;;;;;;;5031041;28;20033;-71
2022/02/22 12:35:31;;;;;;;16.45;4.40;;;;;;;;;;5030471;28;20578;-72
2022/02/22 12:37:58;;;;;;;21.63;5.35;;;;;;;;;;5031559;28;20037;-72
2022/02/22 12:40:30;;;;;;;21.95;5.00;;;;;;;;;;5031518;28;20021;-73
2022/02/22 12:43:05;;;;;;;18.02;4.40;;;;;;;;;;5030957;28;20146;-71
2022/02/22 12:45:38;;;;;;;14.27;4.00;;;;;;;;;;5033520;28;20022;-72
2022/02/22 12:48:05;;;;;;;17.42;5.68;;;;;;;;;;5035906;28;20068;-73
2022/02/22 12:50:32;;;;;;;14.95;4.43;;;;;;;;;;5035569;28;20029;-71
2022/02/22 12:52:58;;;;;;;15.02;3.90;;;;;;;;;;5034961;28;20156;-71
2022/02/22 12:55:24;;;;;;;15.70;4.30;;;;;;;;;;5035080;28;20053;-71
2022/02/22 12:57:50;;;;;;;17.83;4.15;;;;;;;;;;5035243;28;20028;-72
2022/02/22 13:00:20;;;;;;;16.05;4.57;;;;;;;;;;5035065;28;20022;-71
2022/02/22 13:02:46;;;;;;;19.85;4.53;;;;;;;;;;5034877;28;20021;-71
2022/02/22 13:05:12;;;;;;;11.38;2.88;;;;;;;;;;5033857;28;20022;-71
2022/02/22 13:07:39;;;;;;;21.40;5.93;;;;;;;;;;5035088;28;20026;-72
2022/02/22 13:10:05;;;;;;;15.68;5.25;;;;;;;;;;5035168;28;20065;-71
2022/02/22 13:12:32;;;;;;;20.58;5.20;;;;;;;;;;5034942;28;20025;-71
2022/02/22 13:15:00;;;;;;;17.63;5.30;;;;;;;;;;5033901;28;20033;-71
2022/02/22 13:17:28;;;;;;;16.65;3.35;;;;;;;;;;5035083;28;20075;-72
2022/02/22 13:19:54;;;;;;;13.23;3.90;;;;;;;;;;5034989;28;20017;-72
2022/02/22 13:22:29;;;;;;;17.90;4.13;;;;;;;;;;5034900;28;20032;-71
2022/02/22 13:25:06;;;;;;;17.85;4.20;;;;;;;;;;5034009;28;20471;-71
2022/02/22 13:27:32;;;;;;;15.80;4.15;;;;;;;;;;5034815;28;20148;-72
2022/02/22 13:29:59;;;;;;;22.52;4.60;;;;;;;;;;5034828;28;20052;-71
2022/02/22 13:32:29;;;;;;;14.13;2.75;;;;;;;;;;5034901;28;20021;-72
2022/02/22 13:34:55;;;;;;;16.77;3.55;;;;;;;;;;5033112;28;20034;-72
2022/02/22 13:37:25;;;;;;;19.90;4.88;;;;;;;;;;5034453;28;20044;-72
2022/02/22 13:40:08;;;;;;;15.82;3.75;;;;;;;;;;5034619;28;20037;-71
2022/02/22 13:42:35;;;;;;;13.60;3.53;;;;;;;;;;5034743;28;20034;-71
2022/02/22 13:45:01;;;;;;;15.57;3.60;;;;;;;;;;5033808;28;20420;-73
2022/02/22 13:47:29;;;;;;;16.83;4.65;;;;;;;;;;5034502;28;20018;-71
2022/02/22 13:49:55;;;;;;;15.30;2.83;;;;;;;;;;5033707;28;20021;-72
2022/02/22 13:52:21;;;;;;;17.65;3.78;;;;;;;;;;5035038;28;20095;-71
2022/02/22 13:54:48;;;;;;;11.57;3.28;;;;;;;;;;5034127;28;20021;-71
2022/02/22 13:57:15;;;;;;;15.63;3.15;;;;;;;;;;5034289;28;20030;-71
2022/02/22 13:59:41;;;;;;;17.67;3.20;;;;;;;;;;5034150;28;20499;-72
2022/02/22 14:02:09;;;;;;;14.18;3.58;;;;;;;;;;5032900;28;20079;-71
2022/02/22 14:04:35;;;;;;;19.98;4.50;;;;;;;;;;5033503;28;20099;-72
2022/02/22 14:07:04;;;;;;;13.75;3.65;;;;;;;;;;5035008;28;20107;-72
2022/02/22 14:09:31;;;;;;;11.48;2.95;;;;;;;;;;5034866;28;20048;-71
2022/02/22 14:11:57;;;;;;;13.07;3.17;;;;;;;;;;5035063;28;20022;-72
2022/02/22 14:14:23;;;;;;;15.57;3.63;;;;;;;;;;5034197;28;20033;-73
2022/02/22 14:16:49;;;;;;;18.05;3.80;;;;;;;;;;5033168;28;20052;-72
2022/02/22 14:19:15;;;;;;;14.45;4.05;;;;;;;;;;5034464;28;20021;-72
2022/02/22 14:21:41;;;;;;;15.70;4.13;;;;;;;;;;5034136;28;20091;-72
2022/02/22 14:24:11;;;;;;;10.52;3.15;;;;;;;;;;5033234;28;20026;-72
2022/02/22 14:26:38;;;;;;;12.32;3.00;;;;;;;;;;5033729;28;20033;-71
2022/02/22 14:29:07;;;;;;;17.95;4.05;;;;;;;;;;5033728;28;20029;-71
2022/02/22 14:31:33;;;;;;;16.80;3.60;;;;;;;;;;5033838;28;20021;-71